Time;durP1;ratioP1;P1;durP2;ratioP2;P2;SDS_P1;SDS_P2;PMS_P1;PMS_P2;Temp;Humidity;BMP_temperature;BMP_pressure;BME280_temperature;BME280_humidity;BME280_pressure;Samples;Min_cycle;Max_cycle;Signal;HPM_P1;HPM_P2
2023/03/14 00:01:22;;;;;;;21.88;3.97;;;10.30;99.90;;;;;;5040794;28;20388;-68
2023/03/14 00:03:48;;;;;;;15.55;3.28;;;10.30;99.90;;;;;;5068975;28;20041;-68
2023/03/14 00:06:14;;;;;;;21.23;3.50;;;10.40;99.90;;;;;;5028458;28;20463;-68
2023/03/14 00:08:41;;;;;;;22.38;3.60;;;10.40;99.90;;;;;;5047631;28;20037;-70
2023/03/14 00:11:13;;;;;;;16.45;3.33;;;10.40;99.90;;;;;;5050994;28;20095;-68
2023/03/14 00:13:39;;;;;;;18.17;4.20;;;10.50;99.90;;;;;;5051953;28;20108;-70
2023/03/14 00:16:07;;;;;;;22.05;3.35;;;10.40;99.90;;;;;;5051346;28;20087;-68
2023/03/14 00:18:34;;;;;;;19.35;4.10;;;10.40;99.90;;;;;;5085401;28;20052;-70
2023/03/14 00:21:01;;;;;;;23.45;4.38;;;10.50;99.90;;;;;;5045975;28;20040;-68
2023/03/14 00:23:28;;;;;;;19.42;3.63;;;10.50;99.90;;;;;;5027641;28;20478;-68
2023/03/14 00:26:05;;;;;;;17.77;3.83;;;10.60;99.90;;;;;;5069403;28;20060;-69
2023/03/14 00:28:31;;;;;;;20.73;3.88;;;10.60;99.90;;;;;;5068168;28;20099;-69
2023/03/14 00:30:57;;;;;;;20.00;3.75;;;10.60;99.90;;;;;;5036182;28;20045;-68
2023/03/14 00:33:23;;;;;;;22.60;4.07;;;10.70;99.90;;;;;;5071742;28;20044;-68
2023/03/14 00:35:54;;;;;;;17.20;3.08;;;10.70;99.90;;;;;;5039434;28;20029;-68
2023/03/14 00:38:19;;;;;;;15.55;3.88;;;10.70;99.90;;;;;;5035824;28;20060;-69
2023/03/14 00:40:45;;;;;;;19.42;4.43;;;10.60;99.90;;;;;;5045061;28;20032;-69
2023/03/14 00:43:10;;;;;;;21.27;3.83;;;10.70;99.90;;;;;;5050165;28;20049;-67
2023/03/14 00:45:36;;;;;;;20.10;3.63;;;10.60;99.90;;;;;;5051798;28;20059;-69
2023/03/14 00:48:02;;;;;;;20.98;3.90;;;10.60;99.90;;;;;;5044906;28;20051;-68
2023/03/14 00:50:28;;;;;;;20.20;4.03;;;10.50;99.90;;;;;;5052818;28;20388;-69
2023/03/14 00:52:53;;;;;;;17.45;4.03;;;10.40;99.90;;;;;;5050503;28;20109;-68
2023/03/14 00:55:19;;;;;;;20.17;3.75;;;10.40;99.90;;;;;;5050260;28;20036;-69
2023/03/14 00:57:44;;;;;;;17.10;3.90;;;10.40;99.90;;;;;;5042874;28;20049;-68
2023/03/14 01:00:12;;;;;;;18.55;3.67;;;10.40;99.90;;;;;;5070524;28;20152;-68
2023/03/14 01:02:37;;;;;;;25.23;5.72;;;10.40;99.90;;;;;;5038572;28;20095;-68
2023/03/14 01:05:03;;;;;;;19.17;4.93;;;10.40;99.90;;;;;;5050583;28;20075;-68
2023/03/14 01:07:29;;;;;;;16.23;4.80;;;10.40;99.90;;;;;;5049545;28;20041;-67
2023/03/14 01:09:55;;;;;;;12.75;3.88;;;10.40;99.90;;;;;;5035332;28;20424;-67
2023/03/14 01:12:20;;;;;;;14.25;3.90;;;10.40;99.90;;;;;;5035891;28;20056;-70
2023/03/14 01:14:46;;;;;;;16.45;4.03;;;10.40;99.90;;;;;;5034374;28;20119;-69
2023/03/14 01:17:12;;;;;;;13.70;4.03;;;10.40;99.90;;;;;;5068960;28;20068;-69
2023/03/14 01:19:37;;;;;;;15.80;3.83;;;10.30;99.90;;;;;;5041668;28;20037;-69
2023/03/14 01:22:03;;;;;;;14.15;4.00;;;10.30;99.90;;;;;;5077588;28;20451;-68
2023/03/14 01:24:29;;;;;;;16.10;3.58;;;10.20;99.90;;;;;;5039345;28;20458;-69
2023/03/14 01:26:55;;;;;;;16.65;3.95;;;10.20;99.90;;;;;;5047446;28;20033;-69
2023/03/14 01:29:20;;;;;;;17.95;3.35;;;10.10;99.90;;;;;;5029118;28;20044;-68
2023/03/14 01:31:46;;;;;;;15.10;3.88;;;10.00;99.90;;;;;;5032093;28;20045;-69
2023/03/14 01:34:12;;;;;;;13.57;3.80;;;10.00;99.90;;;;;;5037857;28;20041;-68
2023/03/14 01:36:37;;;;;;;16.38;3.63;;;9.90;99.90;;;;;;5035953;28;20125;-68
2023/03/14 01:39:05;;;;;;;15.52;3.83;;;9.90;99.90;;;;;;5029925;28;20550;-69
2023/03/14 01:41:32;;;;;;;21.40;3.95;;;9.90;99.90;;;;;;5041549;28;20049;-69
2023/03/14 01:43:57;;;;;;;16.33;5.15;;;9.80;99.90;;;;;;5019764;28;20037;-68
2023/03/14 01:46:35;;;;;;;15.25;3.80;;;9.80;99.90;;;;;;5038411;28;20033;-69
2023/03/14 01:49:13;;;;;;;17.55;3.95;;;9.80;99.90;;;;;;5035386;28;20485;-68
2023/03/14 01:51:50;;;;;;;15.95;3.70;;;9.80;99.90;;;;;;5042600;28;20044;-69
2023/03/14 01:54:25;;;;;;;22.75;4.47;;;9.80;99.90;;;;;;5054006;28;20767;-69
2023/03/14 01:57:03;;;;;;;18.85;4.25;;;9.80;99.90;;;;;;5064127;28;20044;-68
2023/03/14 01:59:31;;;;;;;18.75;4.53;;;9.80;99.90;;;;;;5067018;28;20053;-69
2023/03/14 02:01:57;;;;;;;21.42;3.40;;;9.80;99.90;;;;;;5038973;28;20037;-68
2023/03/14 02:04:23;;;;;;;17.92;4.22;;;9.70;99.90;;;;;;5042113;28;20056;-69
2023/03/14 02:07:05;;;;;;;15.32;4.10;;;9.70;99.90;;;;;;5036733;28;20647;-69
2023/03/14 02:09:31;;;;;;;20.75;4.18;;;9.80;99.90;;;;;;5035761;28;20057;-67
2023/03/14 02:11:57;;;;;;;21.65;4.85;;;9.70;99.90;;;;;;5037607;28;20037;-69
2023/03/14 02:14:32;;;;;;;15.82;4.47;;;9.70;99.90;;;;;;5034336;28;20508;-69
2023/03/14 02:16:58;;;;;;;16.20;3.05;;;9.70;99.90;;;;;;5018505;28;20069;-68
2023/03/14 02:20:00;;;;;;;15.90;4.07;;;9.70;99.90;;;;;;5034902;28;20053;-69
2023/03/14 02:22:25;;;;;;;17.80;3.53;;;9.80;99.90;;;;;;5034696;28;20049;-68
2023/03/14 02:24:57;;;;;;;18.30;3.90;;;9.80;99.90;;;;;;5056997;28;20121;-69
2023/03/14 02:27:23;;;;;;;17.83;4.45;;;9.80;99.90;;;;;;5032854;28;20407;-68
2023/03/14 02:29:52;;;;;;;16.65;4.80;;;9.80;99.90;;;;;;5047613;28;20033;-68
2023/03/14 02:32:20;;;;;;;18.35;4.00;;;9.70;99.90;;;;;;5048932;28;20040;-67
2023/03/14 02:34:50;;;;;;;15.70;4.20;;;9.70;99.90;;;;;;5037751;28;20037;-70
2023/03/14 02:37:18;;;;;;;16.92;4.28;;;9.60;99.90;;;;;;5030685;28;20029;-69
2023/03/14 02:39:45;;;;;;;17.40;3.70;;;9.60;99.90;;;;;;5067361;28;20419;-68
2023/03/14 02:42:12;;;;;;;13.63;3.60;;;9.60;99.90;;;;;;5077546;28;20040;-68
2023/03/14 02:44:52;;;;;;;8.85;2.78;;;9.50;99.90;;;;;;5043870;28;20028;-68
2023/03/14 02:47:21;;;;;;;10.93;2.75;;;9.50;99.90;;;;;;5072063;28;20093;-68
2023/03/14 02:49:47;;;;;;;10.13;2.90;;;9.40;99.90;;;;;;5048603;28;20049;-68
2023/03/14 02:52:12;;;;;;;5.75;2.53;;;9.40;99.90;;;;;;5047043;28;20487;-69
2023/03/14 02:54:38;;;;;;;8.57;3.10;;;9.30;99.90;;;;;;5034828;28;20040;-67
2023/03/14 02:57:04;;;;;;;9.75;3.30;;;9.30;99.90;;;;;;5031945;28;20041;-68
2023/03/14 02:59:29;;;;;;;11.48;3.30;;;9.20;99.90;;;;;;5039865;28;20454;-70
2023/03/14 03:01:55;;;;;;;6.53;2.90;;;9.20;99.90;;;;;;5049125;28;20045;-69
2023/03/14 03:04:20;;;;;;;9.98;3.40;;;9.20;99.90;;;;;;5047934;28;20045;-68
2023/03/14 03:06:46;;;;;;;8.77;3.30;;;9.10;99.90;;;;;;5049940;28;20040;-68
2023/03/14 03:09:12;;;;;;;7.07;2.60;;;9.10;99.90;;;;;;5027076;28;20489;-68
2023/03/14 03:11:37;;;;;;;8.95;2.95;;;9.10;99.90;;;;;;5033478;28;20037;-69
2023/03/14 03:14:03;;;;;;;8.00;3.65;;;9.10;99.90;;;;;;5041598;28;20516;-68
2023/03/14 03:16:29;;;;;;;9.07;2.92;;;9.00;99.90;;;;;;5064940;28;20040;-68
2023/03/14 03:18:54;;;;;;;11.13;3.10;;;9.10;99.90;;;;;;5035807;28;20091;-68
2023/03/14 03:21:23;;;;;;;12.50;3.50;;;9.00;99.90;;;;;;5032317;28;20471;-70
2023/03/14 03:23:49;;;;;;;15.77;4.55;;;9.00;99.90;;;;;;5041341;28;20095;-69
2023/03/14 03:26:14;;;;;;;10.25;3.65;;;9.00;99.90;;;;;;5049770;28;20051;-68
2023/03/14 03:28:40;;;;;;;14.82;4.13;;;9.00;99.90;;;;;;5046373;28;20916;-69
2023/03/14 03:31:11;;;;;;;13.48;3.75;;;9.00;99.90;;;;;;5048293;28;20037;-68
2023/03/14 03:33:37;;;;;;;11.77;4.00;;;9.00;99.90;;;;;;5047526;28;20689;-69
2023/03/14 03:36:03;;;;;;;13.45;4.25;;;9.00;99.90;;;;;;5047981;28;20071;-69
2023/03/14 03:38:29;;;;;;;15.68;4.43;;;8.90;99.90;;;;;;5030275;28;20048;-69
2023/03/14 03:40:55;;;;;;;11.98;4.25;;;8.90;99.90;;;;;;5028586;28;21520;-68
2023/03/14 03:43:20;;;;;;;14.13;4.25;;;8.90;99.90;;;;;;5044738;28;20454;-69
2023/03/14 03:45:46;;;;;;;14.00;4.47;;;8.90;99.90;;;;;;5047442;28;20099;-69
2023/03/14 03:48:11;;;;;;;12.07;3.92;;;8.90;99.90;;;;;;5046043;28;20049;-68
2023/03/14 03:50:43;;;;;;;13.57;3.97;;;8.90;99.90;;;;;;5045890;28;20046;-69
2023/03/14 03:53:08;;;;;;;14.88;3.65;;;8.90;99.90;;;;;;5079126;28;20755;-69
2023/03/14 03:55:34;;;;;;;16.65;3.92;;;8.80;99.90;;;;;;5045796;28;20513;-68
2023/03/14 03:58:00;;;;;;;15.13;3.70;;;8.90;99.90;;;;;;5046362;28;20081;-69
2023/03/14 04:00:25;;;;;;;11.10;3.15;;;8.90;99.90;;;;;;5046339;28;20131;-67
2023/03/14 04:02:51;;;;;;;12.35;3.40;;;8.90;99.90;;;;;;5048207;28;20047;-68
2023/03/14 04:05:17;;;;;;;10.68;3.13;;;8.90;99.90;;;;;;5046412;28;20398;-68
2023/03/14 04:07:42;;;;;;;15.57;3.30;;;8.90;99.90;;;;;;5048645;28;20112;-69
2023/03/14 04:10:08;;;;;;;13.18;3.47;;;8.90;99.90;;;;;;5046286;28;20044;-68
2023/03/14 04:12:34;;;;;;;10.40;3.05;;;8.90;99.90;;;;;;5027106;28;20282;-68
2023/03/14 04:14:59;;;;;;;12.32;3.05;;;8.90;99.90;;;;;;5049803;28;20056;-68
2023/03/14 04:17:25;;;;;;;11.63;3.55;;;8.80;99.90;;;;;;5045971;28;20099;-68
2023/03/14 04:19:53;;;;;;;11.75;3.20;;;8.80;99.90;;;;;;5047703;28;20041;-68
2023/03/14 04:22:19;;;;;;;11.95;4.03;;;8.80;99.90;;;;;;5028326;28;20115;-69
2023/03/14 04:24:45;;;;;;;11.93;3.78;;;8.80;99.90;;;;;;5051602;28;20086;-68
2023/03/14 04:27:10;;;;;;;12.88;4.32;;;8.80;99.90;;;;;;5047504;28;20033;-68
2023/03/14 04:29:36;;;;;;;13.00;4.63;;;8.70;99.90;;;;;;5080061;28;20053;-69
2023/03/14 04:32:01;;;;;;;13.93;4.00;;;8.70;99.90;;;;;;5048244;28;20044;-69
2023/03/14 04:34:27;;;;;;;11.98;4.20;;;8.70;99.90;;;;;;5047071;28;20099;-68
2023/03/14 04:36:53;;;;;;;9.63;3.83;;;8.70;99.90;;;;;;5049717;28;20123;-67
2023/03/14 04:39:18;;;;;;;16.13;4.10;;;8.70;99.90;;;;;;5049347;28;20566;-68
2023/03/14 04:41:45;;;;;;;8.88;3.70;;;8.70;99.90;;;;;;5046490;28;20455;-68
2023/03/14 04:44:11;;;;;;;9.43;3.88;;;8.70;99.90;;;;;;5046685;28;20124;-68
2023/03/14 04:46:36;;;;;;;14.07;4.00;;;8.70;99.90;;;;;;5045699;28;20513;-68
2023/03/14 04:49:02;;;;;;;15.30;3.90;;;8.70;99.90;;;;;;5050720;28;20476;-68
2023/03/14 04:51:28;;;;;;;11.57;3.55;;;8.70;99.90;;;;;;5049858;28;20033;-67
2023/03/14 04:53:54;;;;;;;10.93;4.18;;;8.70;99.90;;;;;;5047043;28;20067;-68
2023/03/14 04:56:20;;;;;;;13.30;3.88;;;8.70;99.90;;;;;;5065738;28;20112;-68
2023/03/14 04:58:46;;;;;;;10.73;3.60;;;8.80;99.90;;;;;;5076815;28;20136;-69
2023/03/14 05:01:11;;;;;;;13.50;4.22;;;8.80;99.90;;;;;;5037714;28;20057;-68
2023/03/14 05:03:37;;;;;;;12.80;3.75;;;8.80;99.90;;;;;;5037639;28;20067;-69
2023/03/14 05:06:04;;;;;;;13.13;5.07;;;8.90;99.90;;;;;;5054713;28;20116;-68
2023/03/14 05:08:30;;;;;;;11.00;3.97;;;8.90;99.90;;;;;;5037298;28;20037;-67
2023/03/14 05:10:57;;;;;;;10.38;4.22;;;9.00;99.90;;;;;;5067269;28;20373;-67
2023/03/14 05:13:23;;;;;;;10.75;3.80;;;9.00;99.90;;;;;;5083345;28;20079;-68
2023/03/14 05:15:55;;;;;;;8.70;3.70;;;9.00;99.90;;;;;;5048712;28;20045;-68
2023/03/14 05:18:20;;;;;;;10.32;4.18;;;9.00;99.90;;;;;;5050756;28;20044;-70
2023/03/14 05:20:46;;;;;;;8.55;3.85;;;9.00;99.90;;;;;;5051139;28;20051;-68
2023/03/14 05:23:11;;;;;;;12.55;4.30;;;9.00;99.90;;;;;;5036027;28;20515;-68
2023/03/14 05:25:37;;;;;;;10.57;4.07;;;9.00;99.90;;;;;;5043320;28;20045;-68
2023/03/14 05:28:03;;;;;;;10.20;3.75;;;9.00;99.90;;;;;;5068356;28;20124;-69
2023/03/14 05:30:30;;;;;;;11.70;4.32;;;9.00;99.90;;;;;;5066583;28;20072;-68
2023/03/14 05:32:56;;;;;;;12.07;4.30;;;9.00;99.90;;;;;;5042596;28;20136;-68
2023/03/14 05:35:22;;;;;;;14.98;4.20;;;9.00;99.90;;;;;;5042742;28;20124;-68
2023/03/14 05:37:48;;;;;;;12.18;4.10;;;8.90;99.90;;;;;;5070348;28;20041;-68
2023/03/14 05:40:13;;;;;;;16.55;5.55;;;8.90;99.90;;;;;;5021069;28;20080;-70
2023/03/14 05:42:39;;;;;;;10.50;3.88;;;8.80;99.90;;;;;;5066251;28;20044;-68
2023/03/14 05:45:05;;;;;;;13.10;4.18;;;8.80;99.90;;;;;;5068496;28;20052;-68
2023/03/14 05:47:31;;;;;;;11.88;4.82;;;8.70;99.90;;;;;;5043579;28;20484;-67
2023/03/14 05:49:56;;;;;;;14.05;4.07;;;8.70;99.90;;;;;;5036560;28;20048;-69
2023/03/14 05:52:22;;;;;;;11.82;4.35;;;8.70;99.90;;;;;;5022670;28;20140;-68
2023/03/14 05:54:47;;;;;;;11.55;4.60;;;8.70;99.90;;;;;;5039457;28;20049;-68
2023/03/14 05:57:13;;;;;;;12.50;4.63;;;8.60;99.90;;;;;;5039807;28;20037;-68
2023/03/14 05:59:39;;;;;;;13.88;4.53;;;8.60;99.90;;;;;;5070614;28;20124;-68
2023/03/14 06:02:04;;;;;;;15.00;5.10;;;8.60;99.90;;;;;;5049803;28;20052;-68
2023/03/14 06:04:30;;;;;;;14.00;5.03;;;8.60;99.90;;;;;;5046808;28;20065;-68
2023/03/14 06:06:56;;;;;;;16.75;5.30;;;8.60;99.90;;;;;;5036964;28;20139;-67
2023/03/14 06:09:23;;;;;;;12.77;4.55;;;8.60;99.90;;;;;;5041273;28;20128;-68
2023/03/14 06:11:49;;;;;;;14.10;5.13;;;8.60;99.90;;;;;;5038068;28;20067;-68
2023/03/14 06:14:15;;;;;;;13.50;4.75;;;8.60;99.90;;;;;;5068666;28;20068;-67
2023/03/14 06:16:40;;;;;;;11.90;4.25;;;8.60;99.90;;;;;;5047049;28;20431;-68
2023/03/14 06:19:06;;;;;;;11.63;4.55;;;8.60;99.90;;;;;;5050152;28;20487;-67
2023/03/14 06:21:31;;;;;;;11.98;3.78;;;8.60;99.90;;;;;;5049285;28;20110;-68
2023/03/14 06:23:57;;;;;;;10.65;3.63;;;8.60;99.90;;;;;;5030169;28;20028;-69
2023/03/14 06:26:23;;;;;;;11.52;3.55;;;8.60;99.90;;;;;;5041098;28;20107;-68
2023/03/14 06:28:50;;;;;;;10.68;3.42;;;8.60;99.90;;;;;;5031743;28;20057;-68
2023/03/14 06:31:16;;;;;;;9.10;3.40;;;8.60;99.90;;;;;;5053267;28;20048;-68
2023/03/14 06:33:42;;;;;;;7.60;3.33;;;8.70;99.90;;;;;;5050565;28;20048;-69
2023/03/14 06:36:08;;;;;;;8.43;3.00;;;8.60;99.90;;;;;;5049957;28;20079;-68
2023/03/14 06:38:33;;;;;;;7.47;3.00;;;8.70;99.90;;;;;;5049640;28;20389;-68
2023/03/14 06:41:04;;;;;;;7.93;2.80;;;8.70;99.90;;;;;;5048497;28;20079;-70
2023/03/14 06:43:30;;;;;;;7.30;3.33;;;8.70;99.90;;;;;;5049598;28;20415;-68
2023/03/14 06:45:55;;;;;;;8.00;3.53;;;8.70;99.90;;;;;;5050381;28;20037;-68
2023/03/14 06:48:21;;;;;;;11.43;3.75;;;8.70;99.90;;;;;;5049413;28;20033;-68
2023/03/14 06:50:48;;;;;;;8.93;3.35;;;8.60;99.90;;;;;;5031639;28;20450;-68
2023/03/14 06:53:13;;;;;;;9.73;3.80;;;8.70;99.90;;;;;;5048046;28;20033;-67
2023/03/14 06:55:39;;;;;;;8.32;3.25;;;8.70;99.90;;;;;;5047416;28;20051;-69
2023/03/14 06:58:07;;;;;;;8.35;3.50;;;8.70;99.90;;;;;;5049118;28;20037;-69
2023/03/14 07:00:33;;;;;;;6.80;2.58;;;8.70;99.90;;;;;;5030214;28;20036;-69
2023/03/14 07:02:59;;;;;;;5.55;2.15;;;8.50;99.90;;;;;;5049677;28;20044;-67
2023/03/14 07:05:26;;;;;;;4.78;2.58;;;8.50;99.90;;;;;;5050120;28;20102;-68
2023/03/14 07:07:52;;;;;;;5.00;1.65;;;8.30;99.90;;;;;;5049570;28;20045;-69
2023/03/14 07:10:17;;;;;;;4.15;1.80;;;8.30;99.90;;;;;;5049620;28;20040;-68
2023/03/14 07:12:43;;;;;;;5.22;2.33;;;8.20;99.90;;;;;;5049518;28;20037;-68
2023/03/14 07:15:09;;;;;;;3.67;1.77;;;8.20;99.90;;;;;;5049452;28;20061;-68
2023/03/14 07:17:35;;;;;;;4.15;1.85;;;8.10;99.90;;;;;;5049363;28;20079;-68
2023/03/14 07:20:00;;;;;;;3.97;1.40;;;8.10;99.90;;;;;;5049580;28;20029;-68
2023/03/14 07:22:26;;;;;;;4.45;1.55;;;8.10;99.90;;;;;;5049776;28;20476;-68
2023/03/14 07:24:52;;;;;;;6.00;0.93;;;8.00;99.90;;;;;;5032926;28;20036;-69
2023/03/14 07:27:17;;;;;;;6.05;0.98;;;7.80;99.90;;;;;;5047783;28;20040;-69
2023/03/14 07:29:43;;;;;;;6.35;0.70;;;7.60;99.90;;;;;;5048426;28;20037;-67
2023/03/14 07:32:09;;;;;;;4.55;1.48;;;7.30;99.90;;;;;;5048946;28;20068;-68
2023/03/14 07:34:35;;;;;;;2.50;1.00;;;7.20;99.90;;;;;;5048704;28;20509;-68
2023/03/14 07:37:00;;;;;;;3.72;0.80;;;7.00;99.90;;;;;;5048849;28;20496;-68
2023/03/14 07:39:26;;;;;;;4.70;0.85;;;6.90;99.90;;;;;;5049211;28;20116;-68
2023/03/14 07:41:52;;;;;;;4.30;0.88;;;6.80;99.90;;;;;;5049058;28;20049;-68
2023/03/14 07:44:17;;;;;;;6.68;1.02;;;6.70;99.90;;;;;;5048659;28;20041;-69
2023/03/14 07:46:43;;;;;;;4.20;0.75;;;6.50;99.90;;;;;;5048752;28;20369;-69
2023/03/14 07:49:08;;;;;;;6.15;0.85;;;6.30;99.90;;;;;;5048601;28;20069;-69
2023/03/14 07:51:34;;;;;;;4.53;1.25;;;6.20;99.90;;;;;;5048870;28;20054;-68
2023/03/14 07:54:00;;;;;;;3.90;0.60;;;6.10;99.90;;;;;;5048724;28;20542;-68
2023/03/14 07:56:25;;;;;;;4.65;0.52;;;6.00;99.90;;;;;;5048899;28;20044;-68
2023/03/14 07:58:51;;;;;;;3.65;0.47;;;5.80;99.90;;;;;;5032014;28;20395;-68
2023/03/14 08:01:17;;;;;;;1.90;0.60;;;5.80;99.90;;;;;;5048027;28;20392;-69
2023/03/14 08:03:42;;;;;;;2.45;0.40;;;5.60;99.90;;;;;;5052895;28;20047;-69
2023/03/14 08:06:08;;;;;;;4.38;0.50;;;5.50;99.90;;;;;;5053091;28;20041;-68
2023/03/14 08:08:33;;;;;;;1.55;0.40;;;5.40;99.90;;;;;;5052881;28;20103;-69
2023/03/14 08:11:08;;;;;;;0.75;0.30;;;5.30;99.90;;;;;;5036538;28;20048;-68
2023/03/14 08:13:34;;;;;;;2.67;0.50;;;5.30;99.90;;;;;;5052821;28;20068;-67
2023/03/14 08:16:00;;;;;;;4.43;0.45;;;5.30;99.90;;;;;;5052903;28;20377;-70
2023/03/14 08:18:26;;;;;;;2.08;0.75;;;5.30;99.90;;;;;;5052863;28;20095;-68
2023/03/14 08:20:51;;;;;;;5.60;0.47;;;5.40;99.90;;;;;;5052806;28;20041;-67
2023/03/14 08:23:17;;;;;;;3.63;0.38;;;5.40;99.90;;;;;;5068995;28;20040;-68
2023/03/14 08:25:43;;;;;;;4.45;0.40;;;5.40;99.90;;;;;;5052776;28;20554;-68
2023/03/14 08:28:08;;;;;;;2.90;0.50;;;5.40;99.90;;;;;;5052318;28;20045;-67
2023/03/14 08:30:34;;;;;;;3.03;0.73;;;5.30;99.90;;;;;;5052998;28;20448;-67
2023/03/14 08:33:00;;;;;;;3.35;0.45;;;5.40;99.90;;;;;;5052525;28;20040;-67
2023/03/14 08:35:26;;;;;;;2.53;0.50;;;5.50;99.90;;;;;;5052463;28;20488;-68
2023/03/14 08:37:52;;;;;;;2.80;0.60;;;5.50;99.90;;;;;;5035742;28;20079;-69
2023/03/14 08:40:18;;;;;;;3.38;0.40;;;5.50;99.90;;;;;;5053473;28;20480;-69
2023/03/14 08:42:44;;;;;;;5.68;0.60;;;5.60;99.90;;;;;;5052399;28;20044;-66
2023/03/14 08:45:16;;;;;;;2.55;0.47;;;5.70;99.90;;;;;;5052333;28;20471;-68
2023/03/14 08:47:42;;;;;;;5.03;0.80;;;5.70;99.90;;;;;;5052274;28;20412;-69
2023/03/14 08:50:09;;;;;;;4.07;0.75;;;5.70;99.90;;;;;;5052219;28;20063;-69
2023/03/14 08:52:35;;;;;;;7.28;0.70;;;5.70;99.90;;;;;;5052200;28;20067;-68
2023/03/14 08:55:00;;;;;;;8.27;0.80;;;5.70;99.90;;;;;;5035971;28;20504;-69
2023/03/14 08:57:27;;;;;;;6.68;0.85;;;5.70;99.90;;;;;;5052329;28;20025;-67
2023/03/14 08:59:55;;;;;;;2.95;0.63;;;5.80;99.90;;;;;;5052302;28;20052;-68
2023/03/14 09:02:21;;;;;;;5.18;0.80;;;5.80;99.90;;;;;;5051731;28;20048;-69
2023/03/14 09:04:46;;;;;;;5.80;0.90;;;5.90;99.90;;;;;;5051860;28;20090;-67
2023/03/14 09:07:12;;;;;;;4.13;0.70;;;5.90;99.90;;;;;;5035417;28;20509;-67
2023/03/14 09:09:38;;;;;;;6.05;0.57;;;5.90;99.90;;;;;;5035493;28;20129;-69
2023/03/14 09:12:04;;;;;;;6.03;0.77;;;6.00;99.90;;;;;;5051837;28;20084;-68
2023/03/14 09:14:31;;;;;;;7.22;1.42;;;6.10;99.90;;;;;;5051032;28;20048;-67
2023/03/14 09:16:57;;;;;;;9.00;1.55;;;6.20;99.90;;;;;;5051707;28;20055;-68
2023/03/14 09:19:23;;;;;;;7.10;0.80;;;6.30;99.90;;;;;;5046236;28;20041;-69
2023/03/14 09:21:49;;;;;;;7.15;1.48;;;6.40;99.90;;;;;;5051495;28;20099;-69
2023/03/14 09:24:16;;;;;;;7.78;1.17;;;6.50;99.90;;;;;;5051042;28;20080;-69
2023/03/14 09:26:41;;;;;;;12.32;1.73;;;6.60;99.90;;;;;;5085214;28;20036;-69
2023/03/14 09:29:07;;;;;;;8.30;1.38;;;6.70;99.90;;;;;;5051358;28;20045;-70
2023/03/14 09:31:33;;;;;;;9.43;1.27;;;6.80;99.90;;;;;;5051479;28;20052;-69
2023/03/14 09:33:59;;;;;;;7.47;1.20;;;6.90;99.90;;;;;;5051085;28;20132;-68
2023/03/14 09:36:24;;;;;;;8.15;1.50;;;6.90;99.90;;;;;;5050953;28;20041;-67
2023/03/14 09:38:50;;;;;;;11.50;2.75;;;6.90;99.90;;;;;;5051126;28;20124;-69
2023/03/14 09:41:25;;;;;;;13.55;1.67;;;6.90;99.90;;;;;;5050927;28;20106;-68
2023/03/14 09:44:04;;;;;;;10.75;1.92;;;6.90;99.90;;;;;;5051246;28;20049;-68
2023/03/14 09:46:33;;;;;;;12.27;1.92;;;6.90;99.90;;;;;;5050650;28;20044;-67
2023/03/14 09:48:59;;;;;;;13.25;1.80;;;6.90;99.90;;;;;;5050843;28;20509;-68
2023/03/14 09:51:25;;;;;;;10.07;1.63;;;7.00;99.90;;;;;;5050650;28;20037;-67
2023/03/14 09:53:52;;;;;;;12.25;1.90;;;6.90;99.90;;;;;;5050867;28;20040;-68
2023/03/14 09:56:25;;;;;;;14.52;2.00;;;6.90;99.90;;;;;;5050669;28;20048;-68
2023/03/14 09:58:57;;;;;;;12.57;1.75;;;6.80;99.90;;;;;;5050528;28;20051;-69
2023/03/14 10:01:26;;;;;;;11.43;2.33;;;6.60;99.90;;;;;;5050483;28;20087;-68
2023/03/14 10:03:56;;;;;;;16.55;2.05;;;6.50;99.90;;;;;;5050656;28;20058;-68
2023/03/14 10:06:26;;;;;;;13.90;2.03;;;6.60;99.90;;;;;;5050412;28;20040;-68
2023/03/14 10:08:53;;;;;;;12.60;1.95;;;6.70;99.90;;;;;;5050207;28;20068;-68
2023/03/14 10:11:19;;;;;;;13.70;1.90;;;6.90;99.90;;;;;;5050543;28;20045;-69
2023/03/14 10:14:06;;;;;;;17.23;2.17;;;6.80;99.90;;;;;;5050134;28;20496;-67
2023/03/14 10:16:34;;;;;;;14.27;2.08;;;6.80;99.90;;;;;;5066857;28;20036;-68
2023/03/14 10:19:07;;;;;;;14.10;2.30;;;6.50;99.90;;;;;;5050361;28;20036;-67
2023/03/14 10:21:44;;;;;;;13.55;2.00;;;6.50;99.90;;;;;;5050693;28;20041;-68
2023/03/14 10:24:17;;;;;;;17.40;2.22;;;6.50;99.90;;;;;;5033425;28;20056;-68
2023/03/14 10:26:42;;;;;;;15.20;2.67;;;6.60;99.90;;;;;;5048995;28;20377;-68
2023/03/14 10:29:11;;;;;;;23.95;2.30;;;6.70;99.90;;;;;;5050175;28;20041;-68
2023/03/14 10:31:58;;;;;;;19.30;3.67;;;6.70;99.90;;;;;;5049982;28;20033;-68
2023/03/14 10:34:35;;;;;;;15.10;3.13;;;6.70;99.90;;;;;;5049939;28;20047;-67
2023/03/14 10:37:25;;;;;;;17.73;2.95;;;6.80;99.90;;;;;;5033427;28;20033;-68
2023/03/14 10:39:54;;;;;;;18.40;2.22;;;6.70;99.90;;;;;;5049632;28;20094;-68
2023/03/14 10:42:31;;;;;;;16.13;2.38;;;6.70;99.90;;;;;;5049869;28;20172;-68
2023/03/14 10:44:59;;;;;;;17.98;3.17;;;6.80;99.90;;;;;;5049848;28;20395;-68
2023/03/14 10:47:28;;;;;;;13.98;2.10;;;6.90;99.90;;;;;;5049796;28;20052;-67
2023/03/14 10:49:54;;;;;;;20.08;2.63;;;7.00;99.90;;;;;;5033009;28;20040;-70
2023/03/14 10:52:22;;;;;;;16.27;2.30;;;7.20;99.90;;;;;;5050055;28;20392;-70
2023/03/14 10:54:53;;;;;;;15.60;2.03;;;7.30;99.90;;;;;;5049267;28;20041;-68
2023/03/14 10:57:20;;;;;;;13.77;2.10;;;7.50;99.90;;;;;;5049569;28;20044;-68
2023/03/14 10:59:46;;;;;;;21.48;3.80;;;7.60;99.90;;;;;;5049348;28;20055;-68
2023/03/14 11:02:15;;;;;;;13.55;2.15;;;7.40;99.90;;;;;;5049609;28;20044;-69
2023/03/14 11:04:54;;;;;;;17.65;2.95;;;7.30;99.90;;;;;;5049098;28;20057;-67
2023/03/14 11:07:41;;;;;;;12.85;2.35;;;7.20;99.90;;;;;;5049561;28;20041;-69
2023/03/14 11:10:19;;;;;;;15.40;2.45;;;7.20;99.90;;;;;;5049403;28;20049;-69
2023/03/14 11:13:06;;;;;;;14.85;1.90;;;7.30;99.90;;;;;;5049420;28;20495;-68
2023/03/14 11:15:56;;;;;;;10.52;1.90;;;7.50;99.90;;;;;;5049579;28;20449;-69
2023/03/14 11:18:58;;;;;;;12.02;1.77;;;7.70;99.90;;;;;;5049460;28;20048;-68
2023/03/14 11:21:49;;;;;;;12.82;1.63;;;7.80;99.90;;;;;;5049205;28;20076;-67
2023/03/14 11:24:23;;;;;;;9.75;1.80;;;7.70;99.90;;;;;;5032490;28;20036;-67
2023/03/14 11:27:15;;;;;;;14.27;2.13;;;7.80;99.90;;;;;;5049228;28;20048;-68
2023/03/14 11:29:59;;;;;;;16.15;2.63;;;7.90;99.90;;;;;;5046141;28;20052;-69
2023/03/14 11:32:46;;;;;;;10.57;1.58;;;8.00;99.90;;;;;;5049426;28;20055;-68
2023/03/14 11:35:20;;;;;;;11.32;1.50;;;8.20;99.90;;;;;;5049220;28;20477;-68
2023/03/14 11:38:23;;;;;;;7.28;1.30;;;8.20;99.90;;;;;;5048696;28;20045;-67
2023/03/14 11:40:50;;;;;;;9.57;1.90;;;8.00;99.00;;;;;;5049173;28;20491;-68
2023/03/14 11:43:41;;;;;;;7.78;1.38;;;8.10;98.00;;;;;;5049204;28;20117;-68
2023/03/14 11:46:18;;;;;;;8.40;1.50;;;8.00;97.70;;;;;;5048564;28;20070;-67
2023/03/14 11:49:06;;;;;;;9.85;1.67;;;8.00;97.60;;;;;;5032176;28;20049;-67
2023/03/14 11:51:34;;;;;;;9.85;1.63;;;7.80;98.20;;;;;;5032522;28;20052;-67
2023/03/14 11:54:42;;;;;;;9.73;1.52;;;7.80;99.90;;;;;;5048770;28;20052;-68
2023/03/14 11:57:26;;;;;;;10.68;1.42;;;7.70;98.50;;;;;;5031034;28;20044;-67
2023/03/14 12:00:12;;;;;;;9.68;1.55;;;8.00;98.50;;;;;;5064737;28;20048;-68
2023/03/14 12:03:08;;;;;;;8.25;1.48;;;8.50;97.70;;;;;;5031104;28;20135;-68
2023/03/14 12:05:42;;;;;;;9.18;1.73;;;9.00;98.70;;;;;;5031306;28;20049;-67
2023/03/14 12:08:08;;;;;;;7.70;1.50;;;9.10;96.20;;;;;;5064042;28;20128;-69
2023/03/14 12:10:42;;;;;;;4.10;1.02;;;9.40;96.70;;;;;;5031364;28;20191;-67
2023/03/14 12:13:13;;;;;;;5.15;1.35;;;9.50;95.40;;;;;;5030629;28;20040;-68
2023/03/14 12:15:50;;;;;;;6.70;1.20;;;9.70;95.20;;;;;;5030938;28;20116;-68
2023/03/14 12:18:39;;;;;;;4.45;1.08;;;9.90;96.30;;;;;;5030946;28;20502;-69
2023/03/14 12:21:08;;;;;;;7.57;1.00;;;9.80;91.40;;;;;;5030837;28;20045;-68
2023/03/14 12:23:43;;;;;;;5.63;0.70;;;9.90;90.90;;;;;;5031156;28;20480;-68
2023/03/14 12:26:11;;;;;;;5.22;1.02;;;9.60;83.40;;;;;;5030783;28;20084;-70
2023/03/14 12:28:41;;;;;;;4.65;0.93;;;9.30;87.60;;;;;;5030815;28;20124;-68
2023/03/14 12:31:32;;;;;;;3.95;0.70;;;9.30;90.90;;;;;;5022644;28;20503;-69
2023/03/14 12:34:09;;;;;;;4.57;1.00;;;9.30;89.60;;;;;;5031907;28;20041;-67
2023/03/14 12:36:48;;;;;;;5.65;0.90;;;9.10;89.00;;;;;;5048235;28;20033;-68
2023/03/14 12:39:47;;;;;;;4.63;0.98;;;8.90;90.90;;;;;;5048388;28;20049;-69
2023/03/14 12:42:15;;;;;;;4.63;0.98;;;8.90;90.30;;;;;;5048532;28;20044;-68
2023/03/14 12:44:45;;;;;;;4.97;1.00;;;8.90;91.50;;;;;;5048507;28;20055;-69
2023/03/14 12:47:20;;;;;;;6.57;1.60;;;8.90;91.70;;;;;;5031864;28;20416;-68
2023/03/14 12:49:52;;;;;;;9.63;1.50;;;8.70;91.60;;;;;;5049037;28;20068;-68
2023/03/14 12:52:32;;;;;;;5.95;1.08;;;8.40;92.00;;;;;;5052022;28;20049;-70
2023/03/14 12:55:02;;;;;;;10.68;1.48;;;8.40;94.90;;;;;;5051919;28;20045;-67
2023/03/14 12:57:38;;;;;;;8.85;1.48;;;8.60;94.80;;;;;;5051490;28;20049;-69
2023/03/14 13:00:20;;;;;;;8.13;1.17;;;8.80;95.20;;;;;;5051941;28;20037;-70